sensor_id;sensor_type;location;lat;lon;timestamp;pressure;altitude;pressure_sealevel;temperature;humidity
19510;BME280;9896;42.486;26.506;2022-08-11T00:01:50;99689.66;;;21.13;55.16
19510;BME280;9896;42.486;26.506;2022-08-11T00:04:18;99689.97;;;20.96;55.73
19510;BME280;9896;42.486;26.506;2022-08-11T00:06:46;99684.00;;;20.94;55.83
19510;BME280;9896;42.486;26.506;2022-08-11T00:09:18;99683.75;;;20.80;56.37
19510;BME280;9896;42.486;26.506;2022-08-11T00:11:48;99677.72;;;20.88;56.37
19510;BME280;9896;42.486;26.506;2022-08-11T00:14:20;99683.34;;;21.07;55.83
19510;BME280;9896;42.486;26.506;2022-08-11T00:16:59;99688.94;;;20.82;56.59
19510;BME280;9896;42.486;26.506;2022-08-11T00:19:28;99689.72;;;20.93;56.61
19510;BME280;9896;42.486;26.506;2022-08-11T00:21:55;99676.69;;;20.79;56.82
19510;BME280;9896;42.486;26.506;2022-08-11T00:24:21;99673.41;;;20.82;56.65
19510;BME280;9896;42.486;26.506;2022-08-11T00:26:52;99670.88;;;21.01;56.03
19510;BME280;9896;42.486;26.506;2022-08-11T00:29:19;99671.66;;;21.12;56.39
19510;BME280;9896;42.486;26.506;2022-08-11T00:31:52;99667.00;;;21.17;55.90
19510;BME280;9896;42.486;26.506;2022-08-11T00:34:24;99668.19;;;21.40;55.22
19510;BME280;9896;42.486;26.506;2022-08-11T00:37:03;99677.63;;;21.09;56.33
19510;BME280;9896;42.486;26.506;2022-08-11T00:39:32;99679.13;;;20.81;56.86
19510;BME280;9896;42.486;26.506;2022-08-11T00:59:27;99674.50;;;20.76;56.79
19510;BME280;9896;42.486;26.506;2022-08-11T01:02:14;99687.34;;;20.71;57.18
19510;BME280;9896;42.486;26.506;2022-08-11T01:10:35;99700.50;;;20.28;59.02
19510;BME280;9896;42.486;26.506;2022-08-11T01:16:10;99702.13;;;20.34;59.69
19510;BME280;9896;42.486;26.506;2022-08-11T01:56:12;99679.81;;;20.12;58.26
19510;BME280;9896;42.486;26.506;2022-08-11T02:01:53;99685.53;;;20.16;57.21
19510;BME280;9896;42.486;26.506;2022-08-11T02:04:39;99679.81;;;20.02;57.98
19510;BME280;9896;42.486;26.506;2022-08-11T02:10:06;99690.19;;;19.75;59.20
19510;BME280;9896;42.486;26.506;2022-08-11T02:13:00;99688.00;;;19.82;59.03
19510;BME280;9896;42.486;26.506;2022-08-11T02:16:02;99687.44;;;19.70;59.02
19510;BME280;9896;42.486;26.506;2022-08-11T02:18:26;99683.09;;;19.59;59.25
19510;BME280;9896;42.486;26.506;2022-08-11T02:21:15;99677.91;;;19.77;58.36
19510;BME280;9896;42.486;26.506;2022-08-11T02:24:15;99679.28;;;19.90;57.99
19510;BME280;9896;42.486;26.506;2022-08-11T02:26:49;99688.53;;;19.69;58.54
19510;BME280;9896;42.486;26.506;2022-08-11T02:29:28;99676.84;;;19.78;58.19
19510;BME280;9896;42.486;26.506;2022-08-11T02:32:23;99696.69;;;19.74;58.48
19510;BME280;9896;42.486;26.506;2022-08-11T02:35:31;99691.25;;;19.79;58.03
19510;BME280;9896;42.486;26.506;2022-08-11T02:40:56;99702.13;;;20.14;56.96
19510;BME280;9896;42.486;26.506;2022-08-11T02:43:51;99705.69;;;20.35;56.22
19510;BME280;9896;42.486;26.506;2022-08-11T02:46:39;99707.31;;;20.36;55.88
19510;BME280;9896;42.486;26.506;2022-08-11T02:49:25;99705.94;;;20.54;55.48
19510;BME280;9896;42.486;26.506;2022-08-11T02:55:09;99707.03;;;20.22;56.32
19510;BME280;9896;42.486;26.506;2022-08-11T03:01:04;99687.44;;;20.05;56.28
19510;BME280;9896;42.486;26.506;2022-08-11T03:06:18;99709.22;;;20.20;56.27
19510;BME280;9896;42.486;26.506;2022-08-11T03:08:55;99707.56;;;20.45;55.14
19510;BME280;9896;42.486;26.506;2022-08-11T03:11:56;99703.75;;;20.51;55.03
19510;BME280;9896;42.486;26.506;2022-08-11T03:18:09;99691.50;;;20.53;54.83
19510;BME280;9896;42.486;26.506;2022-08-11T03:20:54;99699.59;;;20.73;54.37
19510;BME280;9896;42.486;26.506;2022-08-11T03:23:34;99701.50;;;20.73;53.76
19510;BME280;9896;42.486;26.506;2022-08-11T03:26:27;99711.59;;;20.72;54.28
19510;BME280;9896;42.486;26.506;2022-08-11T03:29:10;99711.94;;;20.46;54.94
19510;BME280;9896;42.486;26.506;2022-08-11T03:31:59;99711.69;;;20.17;55.83
19510;BME280;9896;42.486;26.506;2022-08-11T03:34:27;99701.56;;;20.22;55.71
19510;BME280;9896;42.486;26.506;2022-08-11T03:44:01;99703.47;;;20.22;55.45
19510;BME280;9896;42.486;26.506;2022-08-11T04:24:03;99717.22;;;20.96;54.89
19510;BME280;9896;42.486;26.506;2022-08-11T04:44:15;99721.28;;;21.14;55.41
19510;BME280;9896;42.486;26.506;2022-08-11T04:56:19;99733.03;;;21.58;53.86
19510;BME280;9896;42.486;26.506;2022-08-11T05:16:58;99709.72;;;21.76;51.98
19510;BME280;9896;42.486;26.506;2022-08-11T05:19:46;99717.25;;;21.94;51.88
19510;BME280;9896;42.486;26.506;2022-08-11T05:22:32;99717.00;;;22.24;50.88
19510;BME280;9896;42.486;26.506;2022-08-11T05:25:21;99716.84;;;22.11;50.81
19510;BME280;9896;42.486;26.506;2022-08-11T05:28:10;99716.69;;;22.26;50.36
19510;BME280;9896;42.486;26.506;2022-08-11T05:30:57;99709.94;;;22.47;49.67
19510;BME280;9896;42.486;26.506;2022-08-11T05:33:57;99724.28;;;22.58;49.39
19510;BME280;9896;42.486;26.506;2022-08-11T05:36:51;99718.72;;;22.44;50.43
19510;BME280;9896;42.486;26.506;2022-08-11T05:39:24;99724.31;;;22.29;51.09
19510;BME280;9896;42.486;26.506;2022-08-11T05:42:10;99721.16;;;22.17;51.21
19510;BME280;9896;42.486;26.506;2022-08-11T05:44:58;99719.84;;;22.38;50.87
19510;BME280;9896;42.486;26.506;2022-08-11T05:47:48;99720.16;;;22.37;49.78
19510;BME280;9896;42.486;26.506;2022-08-11T05:50:32;99725.63;;;22.37;49.14
19510;BME280;9896;42.486;26.506;2022-08-11T05:53:17;99731.59;;;22.39;50.29
19510;BME280;9896;42.486;26.506;2022-08-11T05:56:05;99721.44;;;22.97;48.14
19510;BME280;9896;42.486;26.506;2022-08-11T05:58:45;99725.56;;;22.70;49.61
19510;BME280;9896;42.486;26.506;2022-08-11T06:01:13;99728.13;;;22.86;49.20
19510;BME280;9896;42.486;26.506;2022-08-11T06:03:50;99733.75;;;22.42;49.68
19510;BME280;9896;42.486;26.506;2022-08-11T06:06:36;99717.88;;;22.44;49.65
19510;BME280;9896;42.486;26.506;2022-08-11T06:09:04;99723.00;;;22.79;49.09
19510;BME280;9896;42.486;26.506;2022-08-11T06:11:37;99712.81;;;23.08;48.80
19510;BME280;9896;42.486;26.506;2022-08-11T06:14:05;99721.44;;;22.73;49.44
19510;BME280;9896;42.486;26.506;2022-08-11T06:16:31;99719.41;;;23.26;48.39
19510;BME280;9896;42.486;26.506;2022-08-11T06:18:57;99719.91;;;23.28;47.87
19510;BME280;9896;42.486;26.506;2022-08-11T06:21:24;99715.50;;;23.32;48.52
19510;BME280;9896;42.486;26.506;2022-08-11T06:23:51;99724.88;;;23.26;49.49
19510;BME280;9896;42.486;26.506;2022-08-11T06:26:17;99717.28;;;23.42;49.39
19510;BME280;9896;42.486;26.506;2022-08-11T06:28:45;99709.72;;;23.34;49.04
19510;BME280;9896;42.486;26.506;2022-08-11T06:33:52;99720.91;;;23.19;49.38
19510;BME280;9896;42.486;26.506;2022-08-11T06:41:39;99707.94;;;23.24;48.67
19510;BME280;9896;42.486;26.506;2022-08-11T06:46:40;99700.22;;;23.69;47.49
19510;BME280;9896;42.486;26.506;2022-08-11T06:49:07;99700.00;;;23.65;47.17
19510;BME280;9896;42.486;26.506;2022-08-11T06:51:54;99707.19;;;23.80;47.09
19510;BME280;9896;42.486;26.506;2022-08-11T06:54:21;99706.84;;;23.81;46.98
19510;BME280;9896;42.486;26.506;2022-08-11T06:56:48;99707.69;;;23.82;46.68
19510;BME280;9896;42.486;26.506;2022-08-11T06:59:33;99706.53;;;24.01;46.54
19510;BME280;9896;42.486;26.506;2022-08-11T07:02:23;99701.25;;;24.24;46.36
19510;BME280;9896;42.486;26.506;2022-08-11T07:04:55;99715.25;;;24.22;46.28
19510;BME280;9896;42.486;26.506;2022-08-11T07:08:00;99715.09;;;24.32;45.43
19510;BME280;9896;42.486;26.506;2022-08-11T07:11:10;99722.22;;;24.15;46.13
19510;BME280;9896;42.486;26.506;2022-08-11T07:14:01;99719.59;;;24.69;45.12
19510;BME280;9896;42.486;26.506;2022-08-11T07:23:30;99728.25;;;24.30;44.84
19510;BME280;9896;42.486;26.506;2022-08-11T07:26:18;99723.09;;;24.88;43.50
19510;BME280;9896;42.486;26.506;2022-08-11T07:29:06;99725.22;;;24.91;43.46
19510;BME280;9896;42.486;26.506;2022-08-11T07:31:37;99723.47;;;24.95;43.18
19510;BME280;9896;42.486;26.506;2022-08-11T07:36:52;99725.63;;;25.12;42.74
19510;BME280;9896;42.486;26.506;2022-08-11T07:39:27;99718.84;;;25.59;41.92
19510;BME280;9896;42.486;26.506;2022-08-11T07:41:54;99720.25;;;24.93;42.63
19510;BME280;9896;42.486;26.506;2022-08-11T07:44:23;99721.94;;;25.30;42.78
19510;BME280;9896;42.486;26.506;2022-08-11T07:46:54;99714.34;;;25.14;43.23
19510;BME280;9896;42.486;26.506;2022-08-11T07:49:38;99718.50;;;25.11;43.52
19510;BME280;9896;42.486;26.506;2022-08-11T07:52:27;99712.53;;;25.45;42.60
19510;BME280;9896;42.486;26.506;2022-08-11T07:55:05;99712.84;;;25.57;42.26
19510;BME280;9896;42.486;26.506;2022-08-11T07:57:31;99710.00;;;25.62;42.09
19510;BME280;9896;42.486;26.506;2022-08-11T08:00:17;99715.28;;;25.59;41.82
19510;BME280;9896;42.486;26.506;2022-08-11T08:03:04;99709.06;;;25.67;41.07
19510;BME280;9896;42.486;26.506;2022-08-11T08:05:49;99703.31;;;26.21;40.60
19510;BME280;9896;42.486;26.506;2022-08-11T08:08:35;99701.56;;;25.59;41.84
19510;BME280;9896;42.486;26.506;2022-08-11T08:11:20;99702.56;;;25.49;41.80
19510;BME280;9896;42.486;26.506;2022-08-11T08:14:07;99701.72;;;26.20;40.33
19510;BME280;9896;42.486;26.506;2022-08-11T08:16:52;99709.06;;;26.33;40.74
19510;BME280;9896;42.486;26.506;2022-08-11T08:19:37;99695.13;;;26.30;40.42
19510;BME280;9896;42.486;26.506;2022-08-11T08:22:04;99690.75;;;26.29;39.75
19510;BME280;9896;42.486;26.506;2022-08-11T08:24:29;99694.00;;;26.62;39.38
19510;BME280;9896;42.486;26.506;2022-08-11T08:26:57;99686.25;;;26.33;39.62
19510;BME280;9896;42.486;26.506;2022-08-11T08:29:24;99691.00;;;26.80;39.08
19510;BME280;9896;42.486;26.506;2022-08-11T08:32:08;99698.06;;;26.64;39.24
19510;BME280;9896;42.486;26.506;2022-08-11T08:34:38;99691.22;;;26.84;38.40
19510;BME280;9896;42.486;26.506;2022-08-11T08:37:06;99691.38;;;26.88;38.92
19510;BME280;9896;42.486;26.506;2022-08-11T08:39:32;99703.34;;;26.52;39.17
19510;BME280;9896;42.486;26.506;2022-08-11T08:42:02;99691.00;;;26.80;39.04
19510;BME280;9896;42.486;26.506;2022-08-11T08:44:33;99693.34;;;26.56;39.71
19510;BME280;9896;42.486;26.506;2022-08-11T08:47:02;99678.06;;;27.46;37.49
19510;BME280;9896;42.486;26.506;2022-08-11T08:49:37;99677.72;;;27.31;37.89
19510;BME280;9896;42.486;26.506;2022-08-11T08:52:05;99667.22;;;27.67;36.94
19510;BME280;9896;42.486;26.506;2022-08-11T08:54:39;99683.31;;;27.00;38.75
19510;BME280;9896;42.486;26.506;2022-08-11T08:57:08;99680.28;;;27.10;38.24
19510;BME280;9896;42.486;26.506;2022-08-11T08:59:40;99664.91;;;27.43;37.44
19510;BME280;9896;42.486;26.506;2022-08-11T09:02:07;99669.31;;;27.53;37.02
19510;BME280;9896;42.486;26.506;2022-08-11T09:04:38;99676.75;;;27.44;37.09
19510;BME280;9896;42.486;26.506;2022-08-11T09:07:16;99674.63;;;27.32;37.42
19510;BME280;9896;42.486;26.506;2022-08-11T09:09:55;99670.91;;;27.45;37.16
19510;BME280;9896;42.486;26.506;2022-08-11T09:12:25;99660.22;;;27.87;36.23
19510;BME280;9896;42.486;26.506;2022-08-11T09:14:52;99650.06;;;28.34;35.34
19510;BME280;9896;42.486;26.506;2022-08-11T09:20:16;99649.72;;;27.63;37.00
19510;BME280;9896;42.486;26.506;2022-08-11T09:22:43;99648.09;;;27.70;36.76
19510;BME280;9896;42.486;26.506;2022-08-11T09:25:30;99645.38;;;28.34;36.52
19510;BME280;9896;42.486;26.506;2022-08-11T09:28:16;99647.78;;;28.44;35.14
19510;BME280;9896;42.486;26.506;2022-08-11T09:30:44;99650.06;;;29.09;34.73
19510;BME280;9896;42.486;26.506;2022-08-11T09:33:12;99643.66;;;28.59;34.95
19510;BME280;9896;42.486;26.506;2022-08-11T09:35:40;99635.16;;;28.35;36.18
19510;BME280;9896;42.486;26.506;2022-08-11T09:38:13;99641.84;;;29.01;35.29
19510;BME280;9896;42.486;26.506;2022-08-11T09:40:58;99637.19;;;29.14;34.14
19510;BME280;9896;42.486;26.506;2022-08-11T09:43:27;99640.22;;;28.71;34.82
19510;BME280;9896;42.486;26.506;2022-08-11T09:46:12;99628.31;;;28.79;34.49
19510;BME280;9896;42.486;26.506;2022-08-11T09:48:43;99641.88;;;28.92;34.95
19510;BME280;9896;42.486;26.506;2022-08-11T09:51:10;99640.16;;;28.79;34.80
19510;BME280;9896;42.486;26.506;2022-08-11T09:53:39;99625.59;;;28.99;34.41
19510;BME280;9896;42.486;26.506;2022-08-11T09:56:10;99635.13;;;28.81;34.39
19510;BME280;9896;42.486;26.506;2022-08-11T09:58:54;99635.94;;;28.44;35.15
19510;BME280;9896;42.486;26.506;2022-08-11T10:01:22;99636.72;;;28.82;34.78
19510;BME280;9896;42.486;26.506;2022-08-11T10:04:04;99636.28;;;28.80;34.81
19510;BME280;9896;42.486;26.506;2022-08-11T10:06:35;99638.78;;;29.15;34.47
19510;BME280;9896;42.486;26.506;2022-08-11T10:09:22;99635.59;;;28.45;35.71
19510;BME280;9896;42.486;26.506;2022-08-11T10:11:55;99637.22;;;28.46;36.01
19510;BME280;9896;42.486;26.506;2022-08-11T10:14:22;99641.47;;;29.02;34.55
19510;BME280;9896;42.486;26.506;2022-08-11T10:17:08;99630.69;;;28.89;34.34
19510;BME280;9896;42.486;26.506;2022-08-11T10:19:35;99636.13;;;28.77;35.43
19510;BME280;9896;42.486;26.506;2022-08-11T10:22:03;99633.69;;;29.25;34.04
19510;BME280;9896;42.486;26.506;2022-08-11T10:24:49;99625.44;;;29.46;33.90
19510;BME280;9896;42.486;26.506;2022-08-11T10:27:34;99632.25;;;29.81;33.75
19510;BME280;9896;42.486;26.506;2022-08-11T10:30:00;99625.81;;;30.10;32.99
19510;BME280;9896;42.486;26.506;2022-08-11T10:32:46;99636.94;;;29.48;34.26
19510;BME280;9896;42.486;26.506;2022-08-11T10:35:33;99630.59;;;29.27;33.71
19510;BME280;9896;42.486;26.506;2022-08-11T10:38:00;99629.41;;;29.36;33.88
19510;BME280;9896;42.486;26.506;2022-08-11T10:40:27;99631.75;;;29.26;34.11
19510;BME280;9896;42.486;26.506;2022-08-11T10:42:56;99634.66;;;29.50;34.12
19510;BME280;9896;42.486;26.506;2022-08-11T10:45:34;99632.03;;;29.53;33.17
19510;BME280;9896;42.486;26.506;2022-08-11T10:48:20;99630.25;;;29.90;32.78
19510;BME280;9896;42.486;26.506;2022-08-11T10:50:47;99632.88;;;29.87;32.33
19510;BME280;9896;42.486;26.506;2022-08-11T10:53:33;99617.59;;;30.59;31.58
19510;BME280;9896;42.486;26.506;2022-08-11T10:56:19;99620.47;;;30.05;32.12
19510;BME280;9896;42.486;26.506;2022-08-11T10:59:05;99608.84;;;29.99;33.04
19510;BME280;9896;42.486;26.506;2022-08-11T11:01:36;99611.03;;;29.73;32.72
19510;BME280;9896;42.486;26.506;2022-08-11T11:04:11;99608.56;;;30.50;31.84
19510;BME280;9896;42.486;26.506;2022-08-11T11:06:58;99603.41;;;29.91;32.13
19510;BME280;9896;42.486;26.506;2022-08-11T11:09:33;99604.63;;;30.38;31.59
19510;BME280;9896;42.486;26.506;2022-08-11T11:12:22;99612.38;;;30.57;32.06
19510;BME280;9896;42.486;26.506;2022-08-11T11:15:07;99604.50;;;30.11;31.74
19510;BME280;9896;42.486;26.506;2022-08-11T11:17:56;99601.75;;;30.96;30.90
19510;BME280;9896;42.486;26.506;2022-08-11T11:20:44;99599.34;;;29.88;32.81
19510;BME280;9896;42.486;26.506;2022-08-11T11:23:12;99602.91;;;29.15;33.84
19510;BME280;9896;42.486;26.506;2022-08-11T11:39:08;99595.38;;;30.10;32.13
19510;BME280;9896;42.486;26.506;2022-08-11T11:41:34;99596.00;;;29.29;33.57
19510;BME280;9896;42.486;26.506;2022-08-11T11:44:00;99598.59;;;29.26;33.81
19510;BME280;9896;42.486;26.506;2022-08-11T11:46:28;99596.50;;;29.64;32.86
19510;BME280;9896;42.486;26.506;2022-08-11T11:48:55;99600.44;;;30.20;32.15
19510;BME280;9896;42.486;26.506;2022-08-11T11:51:22;99582.16;;;31.01;30.85
19510;BME280;9896;42.486;26.506;2022-08-11T11:53:49;99583.59;;;31.62;29.56
19510;BME280;9896;42.486;26.506;2022-08-11T11:56:16;99590.56;;;30.92;30.68
19510;BME280;9896;42.486;26.506;2022-08-11T11:58:42;99595.66;;;30.78;31.53
19510;BME280;9896;42.486;26.506;2022-08-11T12:01:27;99588.16;;;29.85;33.38
19510;BME280;9896;42.486;26.506;2022-08-11T12:03:54;99586.75;;;29.79;32.46
19510;BME280;9896;42.486;26.506;2022-08-11T12:06:22;99590.47;;;29.50;33.32
19510;BME280;9896;42.486;26.506;2022-08-11T12:08:52;99591.47;;;29.78;33.25
19510;BME280;9896;42.486;26.506;2022-08-11T12:11:20;99588.34;;;30.13;32.59
19510;BME280;9896;42.486;26.506;2022-08-11T12:14:19;99592.56;;;30.67;30.98
19510;BME280;9896;42.486;26.506;2022-08-11T12:16:47;99580.72;;;29.65;32.25
19510;BME280;9896;42.486;26.506;2022-08-11T12:19:16;99584.22;;;29.74;32.81
19510;BME280;9896;42.486;26.506;2022-08-11T12:21:42;99587.31;;;30.17;31.83
19510;BME280;9896;42.486;26.506;2022-08-11T12:24:28;99583.88;;;29.42;33.05
19510;BME280;9896;42.486;26.506;2022-08-11T12:27:13;99583.13;;;29.54;33.97
19510;BME280;9896;42.486;26.506;2022-08-11T12:29:57;99583.56;;;29.89;32.34
19510;BME280;9896;42.486;26.506;2022-08-11T12:32:27;99582.31;;;29.86;32.25
19510;BME280;9896;42.486;26.506;2022-08-11T12:34:54;99569.53;;;29.61;33.27
19510;BME280;9896;42.486;26.506;2022-08-11T12:37:26;99578.16;;;29.60;33.23
19510;BME280;9896;42.486;26.506;2022-08-11T12:39:57;99576.28;;;29.51;33.47
19510;BME280;9896;42.486;26.506;2022-08-11T12:42:43;99573.47;;;29.72;33.59
19510;BME280;9896;42.486;26.506;2022-08-11T12:45:28;99576.34;;;30.09;32.71
19510;BME280;9896;42.486;26.506;2022-08-11T12:48:07;99575.44;;;30.41;31.86
19510;BME280;9896;42.486;26.506;2022-08-11T12:51:03;99577.31;;;30.61;31.73
19510;BME280;9896;42.486;26.506;2022-08-11T12:53:58;99570.31;;;29.49;33.29
19510;BME280;9896;42.486;26.506;2022-08-11T12:56:27;99570.75;;;29.84;32.39
19510;BME280;9896;42.486;26.506;2022-08-11T12:59:14;99576.91;;;29.57;32.76
19510;BME280;9896;42.486;26.506;2022-08-11T13:01:58;99571.44;;;29.48;33.24
19510;BME280;9896;42.486;26.506;2022-08-11T13:04:43;99572.47;;;29.44;33.00
19510;BME280;9896;42.486;26.506;2022-08-11T13:07:21;99573.25;;;29.24;33.52
19510;BME280;9896;42.486;26.506;2022-08-11T13:09:47;99570.72;;;29.72;32.63
19510;BME280;9896;42.486;26.506;2022-08-11T13:12:14;99574.53;;;30.37;32.04
19510;BME280;9896;42.486;26.506;2022-08-11T13:15:00;99564.78;;;29.82;32.51
19510;BME280;9896;42.486;26.506;2022-08-11T13:17:27;99559.31;;;30.07;31.76
19510;BME280;9896;42.486;26.506;2022-08-11T13:19:56;99567.66;;;30.67;31.47
19510;BME280;9896;42.486;26.506;2022-08-11T13:22:22;99570.94;;;30.12;32.44
19510;BME280;9896;42.486;26.506;2022-08-11T13:24:50;99570.63;;;30.26;31.97
19510;BME280;9896;42.486;26.506;2022-08-11T13:27:20;99561.91;;;30.48;31.75
19510;BME280;9896;42.486;26.506;2022-08-11T13:29:47;99567.03;;;30.74;31.68
19510;BME280;9896;42.486;26.506;2022-08-11T13:32:15;99560.53;;;31.74;29.93
19510;BME280;9896;42.486;26.506;2022-08-11T13:34:43;99561.13;;;32.26;29.16
19510;BME280;9896;42.486;26.506;2022-08-11T13:37:11;99563.19;;;32.14;28.89
19510;BME280;9896;42.486;26.506;2022-08-11T13:39:40;99555.34;;;31.88;29.17
19510;BME280;9896;42.486;26.506;2022-08-11T13:42:12;99564.47;;;31.73;29.75
19510;BME280;9896;42.486;26.506;2022-08-11T13:44:40;99564.47;;;31.45;30.04
19510;BME280;9896;42.486;26.506;2022-08-11T13:47:08;99561.63;;;30.29;31.42
19510;BME280;9896;42.486;26.506;2022-08-11T13:49:38;99571.75;;;30.37;31.72
19510;BME280;9896;42.486;26.506;2022-08-11T13:52:04;99579.38;;;30.04;31.84
19510;BME280;9896;42.486;26.506;2022-08-11T13:54:34;99579.34;;;29.59;32.77
19510;BME280;9896;42.486;26.506;2022-08-11T13:57:05;99571.44;;;29.81;32.42
19510;BME280;9896;42.486;26.506;2022-08-11T13:59:31;99569.66;;;29.97;31.60
19510;BME280;9896;42.486;26.506;2022-08-11T14:02:03;99575.84;;;30.64;31.58
19510;BME280;9896;42.486;26.506;2022-08-11T14:04:33;99566.03;;;29.85;31.83
19510;BME280;9896;42.486;26.506;2022-08-11T14:07:04;99565.53;;;30.04;31.55
19510;BME280;9896;42.486;26.506;2022-08-11T14:09:35;99565.31;;;29.43;32.82
19510;BME280;9896;42.486;26.506;2022-08-11T14:12:07;99570.34;;;29.29;32.90
19510;BME280;9896;42.486;26.506;2022-08-11T14:15:02;99564.00;;;29.28;33.64
19510;BME280;9896;42.486;26.506;2022-08-11T14:17:31;99568.13;;;29.55;32.46
19510;BME280;9896;42.486;26.506;2022-08-11T14:20:02;99565.56;;;30.28;31.28
19510;BME280;9896;42.486;26.506;2022-08-11T14:22:29;99558.91;;;29.51;32.93
19510;BME280;9896;42.486;26.506;2022-08-11T14:24:56;99554.53;;;29.83;32.20
19510;BME280;9896;42.486;26.506;2022-08-11T14:27:23;99555.72;;;29.94;32.12
19510;BME280;9896;42.486;26.506;2022-08-11T14:29:55;99548.44;;;30.86;30.77
19510;BME280;9896;42.486;26.506;2022-08-11T14:32:21;99549.19;;;30.71;31.30
19510;BME280;9896;42.486;26.506;2022-08-11T14:34:48;99547.25;;;30.60;31.61
19510;BME280;9896;42.486;26.506;2022-08-11T14:37:20;99549.59;;;29.55;33.22
19510;BME280;9896;42.486;26.506;2022-08-11T14:40:06;99560.94;;;29.21;33.78
19510;BME280;9896;42.486;26.506;2022-08-11T14:42:52;99555.75;;;28.78;34.74
19510;BME280;9896;42.486;26.506;2022-08-11T14:45:38;99560.44;;;29.93;33.19
19510;BME280;9896;42.486;26.506;2022-08-11T14:48:22;99567.84;;;30.26;32.28
19510;BME280;9896;42.486;26.506;2022-08-11T14:50:48;99564.38;;;30.41;32.09
19510;BME280;9896;42.486;26.506;2022-08-11T14:53:14;99571.53;;;30.30;32.40
19510;BME280;9896;42.486;26.506;2022-08-11T14:55:41;99563.44;;;30.85;31.75
19510;BME280;9896;42.486;26.506;2022-08-11T14:58:28;99558.72;;;30.86;31.65
19510;BME280;9896;42.486;26.506;2022-08-11T15:00:56;99559.47;;;30.47;31.86
19510;BME280;9896;42.486;26.506;2022-08-11T15:03:24;99568.78;;;30.30;31.75
19510;BME280;9896;42.486;26.506;2022-08-11T15:05:51;99535.88;;;31.01;31.07
19510;BME280;9896;42.486;26.506;2022-08-11T15:08:19;99566.25;;;30.61;31.67
19510;BME280;9896;42.486;26.506;2022-08-11T15:11:06;99559.13;;;29.79;32.45
19510;BME280;9896;42.486;26.506;2022-08-11T15:13:52;99561.16;;;29.70;32.92
19510;BME280;9896;42.486;26.506;2022-08-11T15:16:20;99566.91;;;29.65;32.81
19510;BME280;9896;42.486;26.506;2022-08-11T15:19:05;99548.44;;;29.57;33.09
19510;BME280;9896;42.486;26.506;2022-08-11T15:21:31;99546.88;;;29.14;33.97
19510;BME280;9896;42.486;26.506;2022-08-11T15:24:15;99555.09;;;29.43;33.38
19510;BME280;9896;42.486;26.506;2022-08-11T15:26:45;99546.22;;;29.38;33.56
19510;BME280;9896;42.486;26.506;2022-08-11T15:29:31;99549.41;;;30.30;32.27
19510;BME280;9896;42.486;26.506;2022-08-11T15:32:17;99560.94;;;30.32;32.11
19510;BME280;9896;42.486;26.506;2022-08-11T15:35:10;99547.06;;;30.92;31.07
19510;BME280;9896;42.486;26.506;2022-08-11T15:37:59;99555.88;;;30.58;31.79
19510;BME280;9896;42.486;26.506;2022-08-11T15:40:38;99550.44;;;30.25;32.07
19510;BME280;9896;42.486;26.506;2022-08-11T15:43:33;99546.84;;;30.13;32.66
19510;BME280;9896;42.486;26.506;2022-08-11T15:46:48;99556.97;;;29.96;32.50
19510;BME280;9896;42.486;26.506;2022-08-11T15:49:21;99555.19;;;29.80;33.56
19510;BME280;9896;42.486;26.506;2022-08-11T15:52:02;99549.50;;;29.97;33.14
19510;BME280;9896;42.486;26.506;2022-08-11T15:54:31;99558.03;;;30.04;33.29
19510;BME280;9896;42.486;26.506;2022-08-11T15:57:00;99547.38;;;29.82;32.72
19510;BME280;9896;42.486;26.506;2022-08-11T15:59:27;99558.78;;;29.27;34.25
19510;BME280;9896;42.486;26.506;2022-08-11T16:02:16;99556.00;;;29.27;34.62
19510;BME280;9896;42.486;26.506;2022-08-11T16:05:05;99558.41;;;29.37;34.79
19510;BME280;9896;42.486;26.506;2022-08-11T16:07:34;99560.72;;;29.80;33.24
19510;BME280;9896;42.486;26.506;2022-08-11T16:10:09;99565.06;;;29.15;34.76
19510;BME280;9896;42.486;26.506;2022-08-11T16:12:45;99568.88;;;29.23;34.85
19510;BME280;9896;42.486;26.506;2022-08-11T16:15:33;99563.16;;;29.48;34.19
19510;BME280;9896;42.486;26.506;2022-08-11T16:18:19;99569.69;;;29.02;34.70
19510;BME280;9896;42.486;26.506;2022-08-11T16:20:46;99563.66;;;28.88;35.16
19510;BME280;9896;42.486;26.506;2022-08-11T16:23:16;99568.09;;;28.81;35.42
19510;BME280;9896;42.486;26.506;2022-08-11T16:25:44;99574.84;;;29.33;34.87
19510;BME280;9896;42.486;26.506;2022-08-11T16:28:12;99579.50;;;29.41;34.51
19510;BME280;9896;42.486;26.506;2022-08-11T16:30:40;99578.41;;;29.34;34.97
19510;BME280;9896;42.486;26.506;2022-08-11T16:33:09;99581.03;;;28.89;35.36
19510;BME280;9896;42.486;26.506;2022-08-11T16:35:36;99581.41;;;28.99;35.67
19510;BME280;9896;42.486;26.506;2022-08-11T16:38:24;99574.00;;;28.33;36.04
19510;BME280;9896;42.486;26.506;2022-08-11T16:41:05;99581.63;;;28.36;36.21
19510;BME280;9896;42.486;26.506;2022-08-11T16:43:42;99586.91;;;28.11;36.56
19510;BME280;9896;42.486;26.506;2022-08-11T16:46:27;99588.41;;;27.92;36.83
19510;BME280;9896;42.486;26.506;2022-08-11T16:49:15;99574.25;;;28.10;36.64
19510;BME280;9896;42.486;26.506;2022-08-11T16:51:43;99582.28;;;27.69;37.52
19510;BME280;9896;42.486;26.506;2022-08-11T16:54:09;99593.09;;;28.00;36.94
19510;BME280;9896;42.486;26.506;2022-08-11T16:56:43;99600.09;;;27.71;37.96
19510;BME280;9896;42.486;26.506;2022-08-11T16:59:23;99592.84;;;27.41;38.05
19510;BME280;9896;42.486;26.506;2022-08-11T17:04:26;99594.94;;;27.36;38.21
19510;BME280;9896;42.486;26.506;2022-08-11T17:07:12;99617.09;;;26.88;39.24
19510;BME280;9896;42.486;26.506;2022-08-11T17:09:43;99610.47;;;26.89;39.29
19510;BME280;9896;42.486;26.506;2022-08-11T17:12:31;99610.38;;;26.71;39.89
19510;BME280;9896;42.486;26.506;2022-08-11T17:15:18;99608.78;;;26.79;39.67
19510;BME280;9896;42.486;26.506;2022-08-11T17:18:06;99610.38;;;26.71;39.62
19510;BME280;9896;42.486;26.506;2022-08-11T17:20:32;99615.53;;;26.56;40.22
19510;BME280;9896;42.486;26.506;2022-08-11T17:23:00;99618.44;;;26.59;40.40